Albuquerque, NM (87111)

6:22 AM MST on February 14, 2016 (GMT -0700)
Spain and Moon | | Change Station
CLOSE
Current Station
Personal Weather Station
Location: Albuquerque, NM
Elevation: 5519 ft
Nearby Weather Stations

Elev 5519 ft 35.14 °N, 106.54 °W | Updated 2 minutes ago

Mostly Cloudy
Mostly Cloudy
38.5 °F
Feels Like 38 °F
N
0.0
Wind Variable Wind from NNW
Gusts 0.0 mph

Today
High -- | Low -- °F
--% Chance of Precip.
Yesterday
High -- | Low -- °F
Precip. -- in
Pressure 30.01 in
Visibility 10.0 miles
Clouds Few 13000 ft
Overcast 20000 ft
Windchill 38 °F
Dew Point 19 °F
Humidity 45%
Rainfall 0.00 in
Snow Depth Not available.
6:53 AM 5:47 PM
Waxing Crescent, 41% visible
METAR KABQ 141252Z 16003KT 10SM FEW130 OVC200 04/M09 A3012 RMK AO2 SLP163 T00391094 $
Pressure 30.01 in
Visibility 10.0 miles
Clouds Few 13000 ft
Overcast 20000 ft
Windchill 38 °F
Dew Point 19 °F
Humidity 45%
Rainfall 0.00 in
Snow Depth Not available.
6:53 AM 5:47 PM
Waxing Crescent, 41% visible
METAR KABQ 141252Z 16003KT 10SM FEW130 OVC200 04/M09 A3012 RMK AO2 SLP163 T00391094 $

10-Day Weather Forecast

Almanac

Astronomy

Feb. 14, 2016 Rise Set
Actual Time
Civil Twilight
Nautical Twilight
Astronomical Twilight
Moon
Length of Visible Light
Length of Day
Tomorrow will be .
, % of the Moon is Illuminated

Today's Extremes

State Highs State Lows

Community

WunderPhotos

Upload Photos

1,892,785 photos uploaded!

WunderBlog® & News

Nearby

Air Quality

  Air Quality AQ Index Pollutant
Not available.

Snow Depth

Station Depth Elevation

Earthquake Activity

City Distance Mag. Time & Date
Minimum magnitude displayed is 2.5.

Coastal Water Temperatures

Place Temperature

Stations

Nearby Weather Stations

Station Location Temp. Windchill Dew Point Humidity Wind Precip. Elev Updated Type
                   

Watches & Warnings

There are currently no watches in effect.